Thank you for stopping by at Cubana Virtual. Ready to take your virtual flying to the next level? Become a pilot for Cubana Virtual Join Cubana Virtual Now!

Locations Worldwide

Reports come from airports, military bases or permanent weather observation stations and are generated once an hour or half-hour, unless conditions change significantly.

Airport Search

Current Location Weather

TBPB 140600Z 10022KT 9999 FEW018 27/23 Q1014 NOSIG
TBPB - Grantley Adams International Airport
Observed
Jun-14 @ 06:00 UTC
Wind
100º at 22 KTS
Visibility
10,000+ meters
Flight Rules
VFR
Cloud Levels
Few at 1800' AGL
Temperature
27ºC / 81ºF
Dewpoint
23ºC / 73ºF
Humidity
79%
Altimeter
29.94" Hg
Pressure
1013.92 hPa

Copyright © 2021, CMS by phpVMS- Your IP address is: 3.235.173.155

✈blueIce v2.0.1 made with ❤ by 209Studios. All Rights Reserved.